Hakozaki Maru — JJ3662 — position and weather

sailwx.info

Track history (hours):
 
Tides and Currents Weather Stations Pressure Air Temp Water Temp Dewpoint Dewpoint Depression Visibility Wind Speed Wind Dir Waves Ship Positions

Hakozaki Maru

Last reported at 2016-Feb-06 07:33 UTC. Time now 2016-Jun-30 19:40 UTC.
Position N 34°40' E 135°14'.
Warning: this ship's position is months out of date.

Length 31 m; draft 2.5 m.

Type: Tug. MMSI: 431000322.

Date/timePositionNaut miles runAvg speedWind from/ knotsBaromVisibWave heightAir tempDewpointWater temp
2016-Feb-06 07:33N 34°40' E 135°14'2 2.0
2016-Feb-06 06:33N 34°41' E 135°12'0 0.0
2016-Feb-06 05:33N 34°41' E 135°12'0 0.0
2016-Feb-06 04:33N 34°41' E 135°12'2 2.3
2016-Feb-06 03:33N 34°40' E 135°15'2 1.6
2016-Feb-06 02:33N 34°39' E 135°16'2 2.1
2016-Feb-06 01:33N 34°40' E 135°14'2 1.8
2016-Feb-06 00:33N 34°41' E 135°12'0 0.0
2016-Feb-05 23:33N 34°41' E 135°12'1 0.0
2016-Feb-04 23:33N 34°41' E 135°13'3 3.3
2016-Feb-04 22:33N 34°42' E 135°17'1 0.6
2016-Feb-04 21:33N 34°42' E 135°18'5 4.6
2016-Feb-04 20:33N 34°41' E 135°12'2 0.2
2016-Feb-04 09:33N 34°42' E 135°15'2 1.6
2016-Feb-04 08:33N 34°41' E 135°13'0 0.4
2016-Feb-04 07:33N 34°41' E 135°12'0 0.0
2016-Feb-04 06:33N 34°41' E 135°12'0 0.0
2016-Feb-04 05:33N 34°41' E 135°12'3 3.4
2016-Feb-04 04:33N 34°39' E 135°09'2 2.1
2016-Feb-04 03:33N 34°40' E 135°12'2 1.7
2016-Feb-04 02:33N 34°41' E 135°12'0 0.0
2016-Feb-04 01:33N 34°41' E 135°12'0 0.0
2016-Feb-04 00:33N 34°41' E 135°12'2 1.8
2016-Feb-03 23:33N 34°41' E 135°14'2 1.8
2016-Feb-03 22:33N 34°41' E 135°12'0 0.0
2016-Feb-03 21:33N 34°41' E 135°12'0 0.0
2016-Feb-03 20:33N 34°41' E 135°12'  
2016-Feb-01 04:28N 34°41' E 135°12'2 2.3
2016-Feb-01 03:33N 34°41' E 135°15'2 2.1
2016-Feb-01 02:33N 34°41' E 135°12'0 0.0
2016-Feb-01 01:33N 34°41' E 135°12'0 0.0
2016-Feb-01 00:33N 34°41' E 135°12'0 0.0
2016-Jan-31 23:33N 34°41' E 135°12'1 0.6
2016-Jan-31 22:33N 34°41' E 135°13'0 0.3
2016-Jan-31 21:33N 34°41' E 135°13'0 0.4
2016-Jan-31 20:33N 34°41' E 135°12'0 0.0
2016-Jan-31 04:33N 34°41' E 135°12'0 0.0
2016-Jan-31 03:33N 34°41' E 135°12'3 3.0
2016-Jan-31 02:33N 34°42' E 135°16'3 2.7
2016-Jan-31 01:33N 34°41' E 135°13'2 1.8
2016-Jan-31 00:33N 34°40' E 135°14'2 2.0
2016-Jan-30 23:33N 34°41' E 135°12'4 0.4
2016-Jan-30 13:33N 34°41' E 135°17'3 3.1
2016-Jan-30 12:34N 34°41' E 135°13'1 1.3
2016-Jan-30 11:33N 34°41' E 135°14'0 0.0
2016-Jan-30 10:33N 34°41' E 135°14'1 0.7
2016-Jan-30 09:33N 34°41' E 135°15'2 2.4
2016-Jan-30 08:33N 34°41' E 135°12'0 0.0
2016-Jan-30 07:33N 34°41' E 135°12'0 0.3
2016-Jan-30 06:33N 34°41' E 135°13'2 1.8
2016-Jan-30 05:33N 34°41' E 135°15'2 2.1
2016-Jan-30 04:33N 34°41' E 135°12'0 0.0
2016-Jan-30 03:33N 34°41' E 135°12'0 0.0
2016-Jan-30 02:33N 34°41' E 135°12'0 0.0
2016-Jan-30 01:33N 34°41' E 135°12'0 0.0
2016-Jan-30 00:33N 34°41' E 135°12'0 0.0
2016-Jan-29 23:33N 34°41' E 135°12'4 3.8
2016-Jan-29 22:33N 34°42' E 135°17'2 2.1
2016-Jan-29 21:33N 34°41' E 135°15'2 0.1
2016-Jan-28 00:34N 34°41' E 135°12'3 2.7
2016-Jan-27 23:34N 34°42' E 135°15'2 1.8
2016-Jan-27 22:33N 34°40' E 135°15'2 2.3
2016-Jan-27 21:33N 34°41' E 135°12'  
Track history (hours):
 
Tides and Currents Weather Stations Pressure Air Temp Water Temp Dewpoint Dewpoint Depression Visibility Wind Speed Wind Dir Waves Ship Positions

Hakozaki Maru

Last reported at 2016-Feb-06 07:33 UTC. Time now 2016-Jun-30 19:40 UTC.
Position N 34°40' E 135°14'.
Warning: this ship's position is months out of date.

Length 31 m; draft 2.5 m.

Type: Tug. MMSI: 431000322.

Date/timePositionNaut miles runAvg speedWind from/ knotsBaromVisibWave heightAir tempDewpointWater temp
2016-Feb-06 07:33N 34°40' E 135°14'2 2.0
2016-Feb-06 06:33N 34°41' E 135°12'0 0.0
2016-Feb-06 05:33N 34°41' E 135°12'0 0.0
2016-Feb-06 04:33N 34°41' E 135°12'2 2.3
2016-Feb-06 03:33N 34°40' E 135°15'2 1.6
2016-Feb-06 02:33N 34°39' E 135°16'2 2.1
2016-Feb-06 01:33N 34°40' E 135°14'2 1.8
2016-Feb-06 00:33N 34°41' E 135°12'0 0.0
2016-Feb-05 23:33N 34°41' E 135°12'1 0.0
2016-Feb-04 23:33N 34°41' E 135°13'3 3.3
2016-Feb-04 22:33N 34°42' E 135°17'1 0.6
2016-Feb-04 21:33N 34°42' E 135°18'5 4.6
2016-Feb-04 20:33N 34°41' E 135°12'2 0.2
2016-Feb-04 09:33N 34°42' E 135°15'2 1.6
2016-Feb-04 08:33N 34°41' E 135°13'0 0.4
2016-Feb-04 07:33N 34°41' E 135°12'0 0.0
2016-Feb-04 06:33N 34°41' E 135°12'0 0.0
2016-Feb-04 05:33N 34°41' E 135°12'3 3.4
2016-Feb-04 04:33N 34°39' E 135°09'2 2.1
2016-Feb-04 03:33N 34°40' E 135°12'2 1.7
2016-Feb-04 02:33N 34°41' E 135°12'0 0.0
2016-Feb-04 01:33N 34°41' E 135°12'0 0.0
2016-Feb-04 00:33N 34°41' E 135°12'2 1.8
2016-Feb-03 23:33N 34°41' E 135°14'2 1.8
2016-Feb-03 22:33N 34°41' E 135°12'0 0.0
2016-Feb-03 21:33N 34°41' E 135°12'0 0.0
2016-Feb-03 20:33N 34°41' E 135°12'  
2016-Feb-01 04:28N 34°41' E 135°12'2 2.3
2016-Feb-01 03:33N 34°41' E 135°15'2 2.1
2016-Feb-01 02:33N 34°41' E 135°12'0 0.0
2016-Feb-01 01:33N 34°41' E 135°12'0 0.0
2016-Feb-01 00:33N 34°41' E 135°12'0 0.0
2016-Jan-31 23:33N 34°41' E 135°12'1 0.6
2016-Jan-31 22:33N 34°41' E 135°13'0 0.3
2016-Jan-31 21:33N 34°41' E 135°13'0 0.4
2016-Jan-31 20:33N 34°41' E 135°12'0 0.0
2016-Jan-31 04:33N 34°41' E 135°12'0 0.0
2016-Jan-31 03:33N 34°41' E 135°12'3 3.0
2016-Jan-31 02:33N 34°42' E 135°16'3 2.7
2016-Jan-31 01:33N 34°41' E 135°13'2 1.8
2016-Jan-31 00:33N 34°40' E 135°14'2 2.0
2016-Jan-30 23:33N 34°41' E 135°12'4 0.4
2016-Jan-30 13:33N 34°41' E 135°17'3 3.1
2016-Jan-30 12:34N 34°41' E 135°13'1 1.3
2016-Jan-30 11:33N 34°41' E 135°14'0 0.0
2016-Jan-30 10:33N 34°41' E 135°14'1 0.7
2016-Jan-30 09:33N 34°41' E 135°15'2 2.4
2016-Jan-30 08:33N 34°41' E 135°12'0 0.0
2016-Jan-30 07:33N 34°41' E 135°12'0 0.3
2016-Jan-30 06:33N 34°41' E 135°13'2 1.8
2016-Jan-30 05:33N 34°41' E 135°15'2 2.1
2016-Jan-30 04:33N 34°41' E 135°12'0 0.0
2016-Jan-30 03:33N 34°41' E 135°12'0 0.0
2016-Jan-30 02:33N 34°41' E 135°12'0 0.0
2016-Jan-30 01:33N 34°41' E 135°12'0 0.0
2016-Jan-30 00:33N 34°41' E 135°12'0 0.0
2016-Jan-29 23:33N 34°41' E 135°12'4 3.8
2016-Jan-29 22:33N 34°42' E 135°17'2 2.1
2016-Jan-29 21:33N 34°41' E 135°15'2 0.1
2016-Jan-28 00:34N 34°41' E 135°12'3 2.7
2016-Jan-27 23:34N 34°42' E 135°15'2 1.8
2016-Jan-27 22:33N 34°40' E 135°15'2 2.3
2016-Jan-27 21:33N 34°41' E 135°12'  

Dump ship's entire track history